createdAt,value
2017-02-18T00:00:27.418Z,3.31
2017-02-18T00:01:27.403Z,3.22
2017-02-18T00:02:27.370Z,2.74
2017-02-18T00:03:27.892Z,2.74
2017-02-18T00:04:27.861Z,2.46
2017-02-18T00:05:27.560Z,2.17
2017-02-18T00:06:27.329Z,1.79
2017-02-18T00:07:27.695Z,1.7
2017-02-18T00:08:27.633Z,1.51
2017-02-18T00:09:27.427Z,1.14
2017-02-18T00:10:27.598Z,0.76
2017-02-18T00:11:27.401Z,0.28
2017-02-18T00:12:26.914Z,0.28
2017-02-18T00:13:27.276Z,0
2017-02-18T00:14:27.213Z,0
2017-02-18T00:15:27.199Z,0.09
2017-02-18T00:16:27.304Z,0
2017-02-18T00:17:27.782Z,0
2017-02-18T00:18:26.906Z,0
2017-02-18T00:19:27.209Z,0
2017-02-18T00:20:27.123Z,0
2017-02-18T00:21:27.089Z,0
2017-02-18T00:22:27.100Z,0
2017-02-18T00:23:27.129Z,0
2017-02-18T00:24:27.065Z,0
2017-02-18T00:25:27.065Z,0
2017-02-18T00:26:27.033Z,0
2017-02-18T00:27:27.028Z,0
2017-02-18T00:28:27.022Z,0
2017-02-18T00:29:26.985Z,0
2017-02-18T00:30:26.977Z,0
2017-02-18T00:31:27.004Z,0
2017-02-18T00:32:26.947Z,0
2017-02-18T00:33:26.930Z,0
2017-02-18T00:34:26.918Z,0
2017-02-18T00:35:26.905Z,0
2017-02-18T00:36:26.879Z,0
2017-02-18T00:37:26.855Z,0
2017-02-18T00:38:26.457Z,0.28
2017-02-18T00:39:27.069Z,0.09
2017-02-18T00:40:26.764Z,0.47
2017-02-18T00:41:26.675Z,1.14
2017-02-18T00:42:26.616Z,2.17
2017-02-18T00:43:26.990Z,2.65
2017-02-18T00:44:26.953Z,3.12
2017-02-18T00:45:26.754Z,3.41
2017-02-18T00:46:26.560Z,3.22
2017-02-18T00:47:26.804Z,2.93
2017-02-18T00:48:26.455Z,2.65
2017-02-18T00:49:26.694Z,2.46
2017-02-18T00:50:26.673Z,2.27
2017-02-18T00:51:26.662Z,1.98
2017-02-18T00:52:27.050Z,1.89
2017-02-18T00:53:26.619Z,1.7
2017-02-18T00:54:26.639Z,1.23
2017-02-18T00:55:26.606Z,1.23
2017-02-18T00:56:26.591Z,0.95
2017-02-18T00:57:26.575Z,1.04
2017-02-18T00:58:26.558Z,1.14
2017-02-18T00:59:26.596Z,1.42
2017-02-18T01:00:26.878Z,1.42
2017-02-18T01:01:26.172Z,1.98
2017-02-18T01:02:26.181Z,1.7
2017-02-18T01:03:26.492Z,1.61
2017-02-18T01:04:26.470Z,1.42
2017-02-18T01:05:26.785Z,1.14
2017-02-18T01:06:26.440Z,1.04
2017-02-18T01:07:26.424Z,1.42
2017-02-18T01:08:26.415Z,1.79
2017-02-18T01:09:26.396Z,1.61
2017-02-18T01:10:26.382Z,2.08
2017-02-18T01:11:26.356Z,2.27
2017-02-18T01:12:26.341Z,2.46
2017-02-18T01:13:26.340Z,2.46
2017-02-18T01:14:26.308Z,2.65
2017-02-18T01:15:26.594Z,2.84
2017-02-18T01:16:26.297Z,2.65
2017-02-18T01:17:26.286Z,2.74
2017-02-18T01:18:26.259Z,2.46
2017-02-18T01:19:26.237Z,2.36
2017-02-18T01:20:26.224Z,2.08
2017-02-18T01:21:26.210Z,1.89
2017-02-18T01:22:26.191Z,1.7
2017-02-18T01:23:26.192Z,1.51
2017-02-18T01:24:26.391Z,1.51
2017-02-18T01:25:26.042Z,1.14
2017-02-18T01:26:26.128Z,0.95
2017-02-18T01:27:26.110Z,0.76
2017-02-18T01:28:26.113Z,0.57
2017-02-18T01:29:26.104Z,0.28
2017-02-18T01:30:26.081Z,0.19
2017-02-18T01:31:26.077Z,0.19
2017-02-18T01:32:26.051Z,0.09
2017-02-18T01:33:26.232Z,0.09
2017-02-18T01:34:26.075Z,0.09
2017-02-18T01:35:26.495Z,0
2017-02-18T01:36:25.983Z,0.28
2017-02-18T01:37:25.970Z,0.19
2017-02-18T01:38:25.965Z,0
2017-02-18T01:39:25.943Z,0
2017-02-18T01:40:25.912Z,0
2017-02-18T01:41:25.896Z,0
2017-02-18T01:42:25.879Z,0
2017-02-18T01:43:25.881Z,0
2017-02-18T01:44:25.865Z,0
2017-02-18T01:45:25.848Z,0
2017-02-18T01:46:25.840Z,0.09
2017-02-18T01:47:25.832Z,0
2017-02-18T01:48:25.803Z,0
2017-02-18T01:49:25.785Z,0
2017-02-18T01:50:25.780Z,0.09
2017-02-18T01:51:25.759Z,0.09
2017-02-18T01:52:25.739Z,0.09
2017-02-18T01:53:25.723Z,0
2017-02-18T01:54:25.772Z,0.09
2017-02-18T01:55:25.699Z,0
2017-02-18T01:56:25.674Z,0
2017-02-18T01:57:25.669Z,0
2017-02-18T01:58:25.659Z,0
2017-02-18T01:59:25.635Z,0
2017-02-18T02:00:25.634Z,0
2017-02-18T02:01:25.592Z,0
2017-02-18T02:02:25.213Z,0
2017-02-18T02:03:25.567Z,0
2017-02-18T02:04:25.562Z,0
2017-02-18T02:05:25.550Z,0
2017-02-18T02:06:25.524Z,0
2017-02-18T02:07:25.544Z,0
2017-02-18T02:08:25.502Z,0
2017-02-18T02:09:25.494Z,0
2017-02-18T02:10:25.467Z,0
2017-02-18T02:11:25.456Z,0
2017-02-18T02:12:25.442Z,0
2017-02-18T02:13:25.420Z,0
2017-02-18T02:14:25.412Z,0
2017-02-18T02:15:25.392Z,0
2017-02-18T02:16:25.379Z,0
2017-02-18T02:17:25.352Z,0
2017-02-18T02:18:25.355Z,0
2017-02-18T02:19:25.333Z,0
2017-02-18T02:20:25.332Z,0
2017-02-18T02:21:24.902Z,0
2017-02-18T02:22:24.906Z,0
2017-02-18T02:23:25.280Z,0
2017-02-18T02:24:25.257Z,0
2017-02-18T02:25:25.245Z,0
2017-02-18T02:26:25.241Z,0
2017-02-18T02:27:25.219Z,0
2017-02-18T02:28:25.203Z,0
2017-02-18T02:29:25.188Z,0
2017-02-18T02:30:25.165Z,0
2017-02-18T02:31:25.171Z,0
2017-02-18T02:32:25.138Z,0
2017-02-18T02:33:25.137Z,0
2017-02-18T02:34:25.126Z,0
2017-02-18T02:35:25.111Z,0
2017-02-18T02:36:25.074Z,0
2017-02-18T02:37:25.065Z,0
2017-02-18T02:38:25.062Z,0
2017-02-18T02:39:25.030Z,0
2017-02-18T02:40:25.034Z,0
2017-02-18T02:41:25.009Z,0
2017-02-18T02:42:24.984Z,0
2017-02-18T02:43:24.976Z,0
2017-02-18T02:44:24.957Z,0
2017-02-18T02:45:24.948Z,0
2017-02-18T02:46:24.924Z,0
2017-02-18T02:47:24.907Z,0
2017-02-18T02:48:24.906Z,0
2017-02-18T02:49:24.884Z,0
2017-02-18T02:50:24.869Z,0
2017-02-18T02:51:24.856Z,0
2017-02-18T02:52:24.842Z,0
2017-02-18T02:53:24.830Z,0
2017-02-18T02:54:24.825Z,0
2017-02-18T02:55:24.794Z,0
2017-02-18T02:56:24.383Z,0
2017-02-18T02:57:24.767Z,0
2017-02-18T02:58:24.754Z,0
2017-02-18T02:59:24.733Z,0
2017-02-18T03:00:24.724Z,0
2017-02-18T03:01:24.717Z,0
2017-02-18T03:02:24.691Z,0
2017-02-18T03:03:24.683Z,0
2017-02-18T03:04:24.652Z,0
2017-02-18T03:05:24.638Z,0
2017-02-18T03:06:24.632Z,0
2017-02-18T03:07:24.609Z,0
2017-02-18T03:08:24.610Z,0
2017-02-18T03:09:24.584Z,0
2017-02-18T03:10:24.571Z,0
2017-02-18T03:11:24.556Z,0
2017-02-18T03:12:24.591Z,0
2017-02-18T03:13:24.520Z,0
2017-02-18T03:14:24.520Z,0
2017-02-18T03:15:24.488Z,0
2017-02-18T03:16:24.473Z,0
2017-02-18T03:17:24.405Z,0
2017-02-18T03:18:24.601Z,0
2017-02-18T03:19:24.439Z,0
2017-02-18T03:20:24.420Z,0
2017-02-18T03:21:24.418Z,0
2017-02-18T03:22:24.388Z,0
2017-02-18T03:23:24.376Z,0
2017-02-18T03:24:24.365Z,0
2017-02-18T03:25:24.342Z,0
2017-02-18T03:26:24.343Z,0
2017-02-18T03:27:24.319Z,0
2017-02-18T03:28:24.041Z,0
2017-02-18T03:29:24.318Z,0
2017-02-18T03:30:24.270Z,0
2017-02-18T03:31:24.264Z,0
2017-02-18T03:32:23.844Z,0
2017-02-18T03:33:24.239Z,0
2017-02-18T03:34:24.302Z,0
2017-02-18T03:35:24.197Z,0
2017-02-18T03:36:23.777Z,0
2017-02-18T03:37:24.170Z,0
2017-02-18T03:38:23.747Z,0
2017-02-18T03:39:24.137Z,0
2017-02-18T03:40:24.138Z,0
2017-02-18T03:41:24.100Z,0
2017-02-18T03:42:24.088Z,0
2017-02-18T03:43:24.066Z,0
2017-02-18T03:44:24.100Z,0
2017-02-18T03:45:24.038Z,0
2017-02-18T03:46:24.019Z,0
2017-02-18T03:47:24.035Z,0
2017-02-18T03:48:23.995Z,0
2017-02-18T03:49:23.990Z,0
2017-02-18T03:50:23.567Z,0
2017-02-18T03:51:23.948Z,0
2017-02-18T03:52:23.550Z,0
2017-02-18T03:53:23.979Z,0
2017-02-18T03:54:23.909Z,0
2017-02-18T03:55:23.885Z,0
2017-02-18T03:56:23.873Z,0
2017-02-18T03:57:24.003Z,0
2017-02-18T03:58:23.849Z,0
2017-02-18T03:59:23.831Z,0
2017-02-18T04:00:23.523Z,0
2017-02-18T04:01:23.797Z,0
2017-02-18T04:02:23.389Z,0
2017-02-18T04:03:23.903Z,0
2017-02-18T04:04:23.763Z,0
2017-02-18T04:05:23.746Z,0
2017-02-18T04:06:23.639Z,0
2017-02-18T04:07:24.114Z,0
2017-02-18T04:08:23.705Z,0
2017-02-18T04:09:23.693Z,0
2017-02-18T04:10:23.670Z,0
2017-02-18T04:11:23.657Z,0
2017-02-18T04:12:23.643Z,0
2017-02-18T04:13:23.625Z,0
2017-02-18T04:14:23.602Z,0
2017-02-18T04:15:23.594Z,0
2017-02-18T04:16:23.583Z,0
2017-02-18T04:17:23.565Z,0
2017-02-18T04:18:23.547Z,0
2017-02-18T04:19:23.539Z,0
2017-02-18T04:20:23.529Z,0
2017-02-18T04:21:23.529Z,0
2017-02-18T04:22:23.485Z,0
2017-02-18T04:23:23.943Z,0
2017-02-18T04:24:23.755Z,0
2017-02-18T04:25:23.781Z,0
2017-02-18T04:26:23.886Z,0
2017-02-18T04:27:23.712Z,0
2017-02-18T04:28:23.727Z,0
2017-02-18T04:29:23.452Z,0
2017-02-18T04:30:22.984Z,0
2017-02-18T04:31:23.358Z,0
2017-02-18T04:32:23.345Z,0
2017-02-18T04:33:23.327Z,0
2017-02-18T04:34:23.564Z,0
2017-02-18T04:35:23.650Z,0
2017-02-18T04:36:23.570Z,0
2017-02-18T04:37:23.564Z,0
2017-02-18T04:38:23.644Z,0
2017-02-18T04:39:23.527Z,0
2017-02-18T04:40:23.704Z,0
2017-02-18T04:41:23.655Z,0
2017-02-18T04:42:23.534Z,0
2017-02-18T04:43:23.436Z,0
2017-02-18T04:44:23.455Z,0
2017-02-18T04:45:23.584Z,0
2017-02-18T04:46:23.659Z,0
2017-02-18T04:47:23.586Z,0
2017-02-18T04:48:23.520Z,0
2017-02-18T04:49:23.310Z,0
2017-02-18T04:50:23.342Z,0
2017-02-18T04:51:23.416Z,0
2017-02-18T04:52:23.289Z,0
2017-02-18T04:53:23.238Z,0
2017-02-18T04:54:23.009Z,0
2017-02-18T04:55:22.997Z,0
2017-02-18T04:56:22.970Z,0
2017-02-18T04:57:22.969Z,0
2017-02-18T04:58:22.945Z,0
2017-02-18T04:59:22.923Z,0
2017-02-18T05:00:22.919Z,0
2017-02-18T05:01:22.901Z,0
2017-02-18T05:02:22.894Z,0
2017-02-18T05:03:22.981Z,0
2017-02-18T05:04:23.161Z,0
2017-02-18T05:05:23.030Z,0
2017-02-18T05:06:23.082Z,0
2017-02-18T05:07:23.039Z,0
2017-02-18T05:08:23.160Z,0
2017-02-18T05:09:22.996Z,0
2017-02-18T05:10:23.129Z,0
2017-02-18T05:11:23.191Z,0
2017-02-18T05:12:22.790Z,0
2017-02-18T05:13:22.721Z,0
2017-02-18T05:14:22.706Z,0
2017-02-18T05:15:22.698Z,0
2017-02-18T05:16:23.041Z,0
2017-02-18T05:17:22.995Z,0
2017-02-18T05:18:22.487Z,0
2017-02-18T05:19:23.018Z,0
2017-02-18T05:20:22.606Z,0
2017-02-18T05:21:22.597Z,0
2017-02-18T05:22:22.588Z,0
2017-02-18T05:23:22.568Z,0
2017-02-18T05:24:22.552Z,0
2017-02-18T05:25:22.542Z,0
2017-02-18T05:26:22.522Z,0
2017-02-18T05:27:22.671Z,0
2017-02-18T05:28:22.704Z,0
2017-02-18T05:29:22.916Z,0
2017-02-18T05:30:22.943Z,0
2017-02-18T05:31:22.995Z,0
2017-02-18T05:32:22.916Z,0
2017-02-18T05:33:22.693Z,0
2017-02-18T05:34:22.796Z,0
2017-02-18T05:35:22.996Z,0
2017-02-18T05:36:22.364Z,0
2017-02-18T05:37:22.350Z,0
2017-02-18T05:38:21.939Z,0
2017-02-18T05:39:22.332Z,0
2017-02-18T05:40:22.312Z,0
2017-02-18T05:41:22.302Z,0
2017-02-18T05:42:22.284Z,0
2017-02-18T05:43:22.383Z,0
2017-02-18T05:44:22.649Z,0
2017-02-18T05:45:22.510Z,0
2017-02-18T05:46:22.706Z,0
2017-02-18T05:47:22.597Z,0
2017-02-18T05:48:22.611Z,0
2017-02-18T05:49:22.513Z,0
2017-02-18T05:50:22.003Z,0
2017-02-18T05:51:22.149Z,0
2017-02-18T05:52:22.122Z,0
2017-02-18T05:53:22.116Z,0
2017-02-18T05:54:22.105Z,0
2017-02-18T05:55:22.087Z,0
2017-02-18T05:56:22.087Z,0
2017-02-18T05:57:22.066Z,0
2017-02-18T05:58:22.031Z,0
2017-02-18T05:59:22.030Z,0
2017-02-18T06:00:22.478Z,0
2017-02-18T06:01:22.416Z,0
2017-02-18T06:02:22.120Z,0
2017-02-18T06:03:21.768Z,0
2017-02-18T06:04:22.283Z,0
2017-02-18T06:05:22.250Z,0
2017-02-18T06:06:21.911Z,0
2017-02-18T06:07:21.907Z,0
2017-02-18T06:08:21.893Z,0
2017-02-18T06:09:21.876Z,0
2017-02-18T06:10:21.876Z,0
2017-02-18T06:11:21.849Z,0
2017-02-18T06:12:21.844Z,0
2017-02-18T06:13:21.825Z,0
2017-02-18T06:14:21.800Z,0
2017-02-18T06:15:21.794Z,0
2017-02-18T06:16:21.780Z,0
2017-02-18T06:17:21.758Z,0
2017-02-18T06:18:21.737Z,0
2017-02-18T06:19:21.734Z,0
2017-02-18T06:20:21.711Z,0
2017-02-18T06:21:21.695Z,0
2017-02-18T06:22:21.687Z,0
2017-02-18T06:23:21.659Z,0
2017-02-18T06:24:21.641Z,0
2017-02-18T06:25:21.641Z,0
2017-02-18T06:26:21.634Z,0
2017-02-18T06:27:21.605Z,0
2017-02-18T06:28:21.587Z,0
2017-02-18T06:29:21.570Z,0
2017-02-18T06:30:21.553Z,0
2017-02-18T06:31:21.550Z,0
2017-02-18T06:32:21.531Z,0
2017-02-18T06:33:21.510Z,0
2017-02-18T06:34:21.497Z,0
2017-02-18T06:35:21.492Z,0
2017-02-18T06:36:21.475Z,0
2017-02-18T06:37:21.451Z,0
2017-02-18T06:38:21.447Z,0
2017-02-18T06:39:21.428Z,0
2017-02-18T06:40:21.420Z,0
2017-02-18T06:41:21.407Z,0
2017-02-18T06:42:21.027Z,0
2017-02-18T06:43:21.371Z,0
2017-02-18T06:44:21.356Z,0
2017-02-18T06:45:21.341Z,0
2017-02-18T06:46:21.325Z,0
2017-02-18T06:47:21.310Z,0
2017-02-18T06:48:21.283Z,0
2017-02-18T06:49:21.270Z,0
2017-02-18T06:50:21.269Z,0
2017-02-18T06:51:21.241Z,0
2017-02-18T06:52:21.223Z,0
2017-02-18T06:53:21.215Z,0
2017-02-18T06:54:21.208Z,0
2017-02-18T06:55:21.199Z,0
2017-02-18T06:56:21.166Z,0
2017-02-18T06:57:21.162Z,0
2017-02-18T06:58:21.141Z,0
2017-02-18T06:59:21.135Z,0
2017-02-18T07:00:21.116Z,0
2017-02-18T07:01:21.112Z,0
2017-02-18T07:02:21.086Z,0
2017-02-18T07:03:21.069Z,0
2017-02-18T07:04:21.059Z,0
2017-02-18T07:05:21.041Z,0
2017-02-18T07:06:21.023Z,0
2017-02-18T07:07:21.003Z,0
2017-02-18T07:08:20.995Z,0
2017-02-18T07:09:21.035Z,0
2017-02-18T07:10:20.965Z,0
2017-02-18T07:11:20.952Z,0
2017-02-18T07:12:20.929Z,0
2017-02-18T07:13:20.911Z,0
2017-02-18T07:14:20.903Z,0
2017-02-18T07:15:20.892Z,0
2017-02-18T07:16:20.869Z,0
2017-02-18T07:17:20.860Z,0
2017-02-18T07:18:20.846Z,0
2017-02-18T07:19:20.825Z,0
2017-02-18T07:20:20.817Z,0
2017-02-18T07:21:20.807Z,0
2017-02-18T07:22:20.785Z,0
2017-02-18T07:23:20.777Z,0
2017-02-18T07:24:20.758Z,0
2017-02-18T07:25:20.729Z,0
2017-02-18T07:26:20.323Z,0
2017-02-18T07:27:20.709Z,0.57
2017-02-18T07:28:20.713Z,1.32
2017-02-18T07:29:20.680Z,2.93
2017-02-18T07:30:20.660Z,3.69
2017-02-18T07:31:20.245Z,3.31
2017-02-18T07:32:20.629Z,3.59
2017-02-18T07:33:20.628Z,3.78
2017-02-18T07:34:20.600Z,4.16
2017-02-18T07:35:20.608Z,3.88
2017-02-18T07:36:20.574Z,3.59
2017-02-18T07:37:20.570Z,3.69
2017-02-18T07:38:20.546Z,4.35
2017-02-18T07:39:20.533Z,4.16
2017-02-18T07:40:20.516Z,3.78
2017-02-18T07:41:20.493Z,3.97
2017-02-18T07:42:20.483Z,4.63
2017-02-18T07:43:20.465Z,5.2
2017-02-18T07:44:20.464Z,5.11
2017-02-18T07:45:20.437Z,5.68
2017-02-18T07:46:20.429Z,6.24
2017-02-18T07:47:20.415Z,6.05
2017-02-18T07:48:20.396Z,5.39
2017-02-18T07:49:20.384Z,5.3
2017-02-18T07:50:20.368Z,5.2
2017-02-18T07:51:20.350Z,6.53
2017-02-18T07:52:20.340Z,6.91
2017-02-18T07:53:20.324Z,6.43
2017-02-18T07:54:20.317Z,6.15
2017-02-18T07:55:20.284Z,6.72
2017-02-18T07:56:20.286Z,7
2017-02-18T07:57:20.255Z,6.91
2017-02-18T07:58:19.849Z,8.04
2017-02-18T07:59:20.234Z,9.37
2017-02-18T08:00:20.220Z,9.94
2017-02-18T08:01:19.801Z,9.94
2017-02-18T08:02:20.189Z,9.65
2017-02-18T08:03:20.164Z,8.7
2017-02-18T08:04:20.167Z,8.51
2017-02-18T08:05:20.144Z,9.37
2017-02-18T08:06:20.139Z,9.56
2017-02-18T08:07:20.116Z,9.65
2017-02-18T08:08:20.091Z,9.56
2017-02-18T08:09:20.096Z,8.7
2017-02-18T08:10:20.068Z,9.18
2017-02-18T08:11:20.054Z,9.56
2017-02-18T08:12:20.038Z,12.21
2017-02-18T08:13:20.030Z,12.4
2017-02-18T08:14:20.007Z,12.49
2017-02-18T08:15:19.990Z,13.15
2017-02-18T08:16:19.977Z,14.1
2017-02-18T08:17:19.963Z,14.67
2017-02-18T08:18:19.948Z,15.61
2017-02-18T08:19:19.935Z,16.37
2017-02-18T08:20:19.915Z,15.71
2017-02-18T08:21:20.141Z,14.96
2017-02-18T08:22:20.147Z,14.67
2017-02-18T08:23:20.129Z,14.77
2017-02-18T08:24:20.163Z,16.38
2017-02-18T08:25:20.102Z,20.45
2017-02-18T08:26:20.085Z,24.52
2017-02-18T08:27:20.058Z,23.29
2017-02-18T08:28:20.047Z,22.44
2017-02-18T08:29:20.077Z,21.78
2017-02-18T08:30:20.030Z,20.36
2017-02-18T08:31:20.006Z,21.97
2017-02-18T08:32:19.996Z,23.01
2017-02-18T08:33:19.983Z,22.92
2017-02-18T08:34:20.006Z,23.11
2017-02-18T08:35:19.954Z,25.77
2017-02-18T08:36:19.921Z,29.65
2017-02-18T08:37:19.788Z,34.58
2017-02-18T08:38:19.396Z,34.67
2017-02-18T08:39:19.878Z,35.81
2017-02-18T08:40:19.630Z,38.18
2017-02-18T08:41:19.616Z,38.37
2017-02-18T08:42:19.660Z,38.09
2017-02-18T08:43:19.584Z,40.17
2017-02-18T08:44:19.572Z,40.36
2017-02-18T08:45:19.563Z,40.17
2017-02-18T08:46:19.538Z,40.74
2017-02-18T08:47:19.532Z,42.54
2017-02-18T08:48:19.513Z,43.96
2017-02-18T08:49:19.511Z,43.87
2017-02-18T08:50:19.494Z,45.29
2017-02-18T08:51:19.470Z,44.24
2017-02-18T08:52:19.450Z,42.92
2017-02-18T08:53:19.440Z,43.11
2017-02-18T08:54:19.030Z,43.11
2017-02-18T08:55:19.412Z,40.83
2017-02-18T08:56:19.405Z,39.79
2017-02-18T08:57:19.379Z,38.26
2017-02-18T08:58:19.367Z,39.03
2017-02-18T08:59:19.364Z,39.41
2017-02-18T09:00:19.349Z,39.96
2017-02-18T09:01:19.323Z,41.02
2017-02-18T09:02:19.317Z,41.19
2017-02-18T09:03:19.299Z,41.28
2017-02-18T09:04:19.281Z,39.98
2017-02-18T09:05:19.272Z,40.72
2017-02-18T09:06:19.264Z,40.63
2017-02-18T09:07:19.244Z,39.68
2017-02-18T09:08:19.241Z,40.25
2017-02-18T09:09:19.216Z,39.87
2017-02-18T09:10:19.201Z,38.73
2017-02-18T09:11:19.197Z,37.02
2017-02-18T09:12:19.173Z,37.8
2017-02-18T09:13:19.159Z,38.84
2017-02-18T09:14:19.153Z,40.17
2017-02-18T09:15:19.146Z,40.83
2017-02-18T09:16:19.126Z,42.73
2017-02-18T09:17:19.104Z,42.25
2017-02-18T09:18:19.113Z,43.01
2017-02-18T09:19:19.083Z,42.82
2017-02-18T09:20:19.078Z,42.35
2017-02-18T09:21:18.655Z,41.69
2017-02-18T09:22:19.039Z,43.11
2017-02-18T09:23:19.020Z,42.54
2017-02-18T09:24:19.017Z,43.3
2017-02-18T09:25:18.988Z,42.16
2017-02-18T09:26:18.980Z,41.12
2017-02-18T09:27:18.962Z,41.78
2017-02-18T09:28:18.570Z,44.72
2017-02-18T09:29:18.945Z,47.75
2017-02-18T09:30:18.932Z,49.08
2017-02-18T09:31:18.914Z,47.75
2017-02-18T09:32:18.894Z,46.71
2017-02-18T09:33:18.492Z,46.33
2017-02-18T09:34:18.882Z,44.53
2017-02-18T09:35:18.467Z,43.3
2017-02-18T09:36:18.848Z,42.92
2017-02-18T09:37:18.833Z,45.95
2017-02-18T09:38:18.810Z,49.93
2017-02-18T09:39:18.808Z,54.1
2017-02-18T09:40:18.782Z,53.63
2017-02-18T09:41:18.792Z,51.26
2017-02-18T09:42:18.770Z,52.29
2017-02-18T09:43:18.751Z,50.49
2017-02-18T09:44:18.749Z,50.78
2017-02-18T09:45:18.725Z,52.58
2017-02-18T09:46:18.709Z,52.01
2017-02-18T09:47:18.696Z,51.26
2017-02-18T09:48:18.671Z,55.05
2017-02-18T09:49:18.716Z,56.66
2017-02-18T09:50:18.648Z,57.13
2017-02-18T09:51:18.631Z,56.18
2017-02-18T09:52:18.623Z,55.99
2017-02-18T09:53:18.625Z,55.62
2017-02-18T09:54:18.595Z,53.44
2017-02-18T09:55:18.596Z,55.24
2017-02-18T09:56:18.565Z,56.46
2017-02-18T09:57:18.563Z,61.49
2017-02-18T09:58:18.537Z,61.3
2017-02-18T09:59:18.530Z,61.4
2017-02-18T10:00:18.522Z,60.44
2017-02-18T10:01:18.495Z,61.02
2017-02-18T10:02:18.488Z,60.83
2017-02-18T10:03:18.475Z,59.59
2017-02-18T10:04:18.466Z,61.21
2017-02-18T10:05:18.443Z,59.12
2017-02-18T10:06:18.436Z,59.22
2017-02-18T10:07:18.439Z,60.86
2017-02-18T10:08:18.417Z,61.14
2017-02-18T10:09:18.399Z,62.28
2017-02-18T10:10:18.385Z,65.31
2017-02-18T10:11:18.368Z,66.35
2017-02-18T10:12:17.955Z,65.88
2017-02-18T10:13:18.338Z,69.67
2017-02-18T10:14:18.331Z,69.01
2017-02-18T10:15:18.319Z,68.35
2017-02-18T10:16:18.295Z,64.93
2017-02-18T10:17:18.348Z,64.46
2017-02-18T10:18:18.286Z,66.83
2017-02-18T10:19:18.257Z,75.93
2017-02-18T10:20:18.240Z,74.6
2017-02-18T10:21:18.245Z,72.42
2017-02-18T10:22:18.214Z,70.9
2017-02-18T10:23:18.215Z,69.67
2017-02-18T10:24:18.194Z,70.15
2017-02-18T10:25:18.182Z,69.57
2017-02-18T10:26:17.776Z,72.23
2017-02-18T10:27:18.146Z,77.92
2017-02-18T10:28:18.134Z,82.18
2017-02-18T10:29:18.139Z,82.56
2017-02-18T10:30:18.111Z,78.49
2017-02-18T10:31:18.153Z,75.93
2017-02-18T10:32:18.088Z,72.52
2017-02-18T10:33:18.076Z,71.09
2017-02-18T10:34:18.064Z,71.81
2017-02-18T10:35:18.040Z,74.51
2017-02-18T10:36:18.046Z,75.17
2017-02-18T10:37:18.023Z,74.88
2017-02-18T10:38:18.003Z,77.73
2017-02-18T10:39:18.002Z,76.31
2017-02-18T10:40:17.983Z,76.59
2017-02-18T10:41:17.964Z,77.64
2017-02-18T10:42:17.961Z,79.72
2017-02-18T10:43:17.950Z,81.62
2017-02-18T10:44:17.931Z,81.81
2017-02-18T10:45:17.917Z,78.96
2017-02-18T10:46:17.909Z,80.95
2017-02-18T10:47:17.903Z,81.33
2017-02-18T10:48:17.891Z,80.19
2017-02-18T10:49:17.860Z,82.04
2017-02-18T10:50:17.854Z,85.45
2017-02-18T10:51:17.840Z,88.39
2017-02-18T10:52:17.422Z,89.43
2017-02-18T10:53:17.814Z,88.77
2017-02-18T10:54:17.801Z,95.79
2017-02-18T10:55:17.799Z,94.93
2017-02-18T10:56:17.769Z,94.27
2017-02-18T10:57:17.762Z,93.8
2017-02-18T10:58:17.742Z,94.46
2017-02-18T10:59:17.731Z,95.22
2017-02-18T11:00:17.723Z,93.32
2017-02-18T11:01:17.709Z,91.14
2017-02-18T11:02:17.691Z,92.09
2017-02-18T11:03:17.689Z,95.5
2017-02-18T11:04:17.675Z,93.51
2017-02-18T11:05:17.664Z,94.37
2017-02-18T11:06:17.650Z,95.22
2017-02-18T11:07:17.631Z,95.98
2017-02-18T11:08:17.616Z,94.37
2017-02-18T11:09:17.611Z,92.66
2017-02-18T11:10:17.599Z,92.94
2017-02-18T11:11:17.598Z,94.37
2017-02-18T11:12:17.571Z,97.69
2017-02-18T11:13:17.564Z,97.21
2017-02-18T11:14:17.542Z,95.12
2017-02-18T11:15:17.534Z,95.31
2017-02-18T11:16:17.531Z,97.02
2017-02-18T11:17:17.503Z,96.83
2017-02-18T11:18:17.495Z,98.73
2017-02-18T11:19:17.488Z,98.54
2017-02-18T11:20:17.484Z,95.5
2017-02-18T11:21:17.452Z,95.22
2017-02-18T11:22:17.449Z,96.36
2017-02-18T11:23:17.031Z,97.78
2017-02-18T11:24:17.421Z,98.25
2017-02-18T11:25:17.414Z,99.99
2017-02-18T11:26:17.402Z,99.99
2017-02-18T11:27:17.390Z,99.99
2017-02-18T11:28:17.372Z,99.99
2017-02-18T11:29:17.349Z,99.99
2017-02-18T11:30:17.349Z,99.99
2017-02-18T11:31:17.333Z,99.99
2017-02-18T11:32:17.316Z,99.99
2017-02-18T11:33:17.310Z,99.99
2017-02-18T11:34:17.301Z,99.99
2017-02-18T11:35:17.282Z,99.99
2017-02-18T11:36:17.275Z,99.99
2017-02-18T11:37:17.269Z,99.99
2017-02-18T11:38:17.242Z,99.99
2017-02-18T11:39:17.241Z,99.99
2017-02-18T11:40:17.228Z,99.99
2017-02-18T11:41:17.202Z,99.99
2017-02-18T11:42:17.201Z,99.99
2017-02-18T11:43:17.188Z,99.99
2017-02-18T11:44:17.181Z,99.99
2017-02-18T11:45:17.160Z,99.99
2017-02-18T11:46:16.755Z,99.99
2017-02-18T11:47:17.143Z,99.99
2017-02-18T11:48:17.130Z,99.99
2017-02-18T11:49:17.122Z,99.99
2017-02-18T11:50:17.099Z,99.99
2017-02-18T11:51:17.088Z,99.99
2017-02-18T11:52:17.084Z,99.99
2017-02-18T11:53:17.087Z,99.99
2017-02-18T11:54:17.060Z,99.99
2017-02-18T11:55:16.655Z,99.99
2017-02-18T11:56:17.038Z,99.99
2017-02-18T11:57:16.620Z,99.99
2017-02-18T11:58:16.610Z,99.99
2017-02-18T11:59:16.994Z,99.99
2017-02-18T12:00:16.995Z,99.99
2017-02-18T12:01:16.978Z,99.99
2017-02-18T12:02:16.960Z,99.99
2017-02-18T12:03:16.937Z,99.99
2017-02-18T12:04:16.531Z,99.99
2017-02-18T12:05:16.926Z,99.99
2017-02-18T12:06:16.914Z,99.99
2017-02-18T12:07:16.891Z,99.99
2017-02-18T12:08:16.889Z,99.99
2017-02-18T12:09:16.870Z,98.96
2017-02-18T12:10:16.863Z,98.21
2017-02-18T12:11:16.842Z,98.68
2017-02-18T12:12:16.852Z,94.51
2017-02-18T12:13:16.821Z,92.42
2017-02-18T12:14:16.810Z,93.27
2017-02-18T12:15:16.795Z,90.72
2017-02-18T12:16:16.781Z,90.43
2017-02-18T12:17:16.778Z,89.77
2017-02-18T12:18:16.771Z,88.4
2017-02-18T12:19:16.750Z,85.74
2017-02-18T12:20:16.744Z,84.51
2017-02-18T12:21:16.727Z,84.89
2017-02-18T12:22:16.706Z,84.89
2017-02-18T12:23:16.698Z,84.89
2017-02-18T12:24:16.686Z,85.36
2017-02-18T12:25:16.673Z,84.51
2017-02-18T12:26:16.668Z,87.12
2017-02-18T12:27:16.635Z,88.92
2017-02-18T12:28:16.647Z,88.87
2017-02-18T12:29:16.615Z,87.64
2017-02-18T12:30:16.612Z,85.78
2017-02-18T12:31:16.597Z,86.74
2017-02-18T12:32:16.580Z,88.44
2017-02-18T12:33:16.567Z,90.62
2017-02-18T12:34:16.158Z,90.34
2017-02-18T12:35:16.134Z,90.72
2017-02-18T12:36:16.529Z,90.24
2017-02-18T12:37:16.507Z,91.19
2017-02-18T12:38:16.494Z,92.71
2017-02-18T12:39:16.487Z,94.7
2017-02-18T12:40:16.477Z,94.46
2017-02-18T12:41:16.477Z,96.55
2017-02-18T12:42:16.453Z,97.64
2017-02-18T12:43:16.443Z,98.73
2017-02-18T12:44:16.423Z,97.78
2017-02-18T12:45:16.415Z,98.25
2017-02-18T12:46:16.397Z,99.58
2017-02-18T12:47:15.982Z,99.39
2017-02-18T12:48:15.970Z,99.01
2017-02-18T12:49:15.960Z,98.82
2017-02-18T12:50:16.352Z,98.73
2017-02-18T12:51:16.337Z,98.82
2017-02-18T12:52:16.320Z,96.83
2017-02-18T12:53:16.311Z,98.44
2017-02-18T12:54:16.290Z,98.92
2017-02-18T12:55:15.878Z,99.58
2017-02-18T12:56:16.274Z,99.39
2017-02-18T12:57:16.253Z,99.39
2017-02-18T12:58:16.261Z,99.68
2017-02-18T12:59:16.243Z,99.99
2017-02-18T13:00:16.218Z,99.99
2017-02-18T13:01:16.220Z,99.68
2017-02-18T13:02:15.791Z,99.99
2017-02-18T13:03:16.176Z,99.99
2017-02-18T13:04:16.167Z,99.99
2017-02-18T13:05:15.756Z,99.99
2017-02-18T13:06:16.135Z,99.99
2017-02-18T13:07:16.130Z,99.99
2017-02-18T13:08:16.110Z,99.99
2017-02-18T13:09:16.114Z,99.99
2017-02-18T13:10:16.102Z,99.99
2017-02-18T13:11:16.078Z,99.99
2017-02-18T13:12:16.081Z,99.99
2017-02-18T13:13:16.051Z,99.99
2017-02-18T13:14:16.041Z,99.99
2017-02-18T13:15:16.034Z,99.99
2017-02-18T13:16:16.011Z,99.99
2017-02-18T13:17:15.999Z,99.99
2017-02-18T13:18:16.003Z,99.99
2017-02-18T13:19:15.972Z,99.99
2017-02-18T13:20:15.969Z,99.99
2017-02-18T13:21:15.951Z,99.99
2017-02-18T13:22:15.546Z,99.99
2017-02-18T13:23:15.922Z,99.99
2017-02-18T13:24:15.917Z,99.53
2017-02-18T13:25:15.907Z,97.45
2017-02-18T13:26:15.905Z,97.45
2017-02-18T13:27:15.880Z,94.13
2017-02-18T13:28:15.458Z,90.81
2017-02-18T13:29:15.459Z,86.88
2017-02-18T13:30:15.441Z,82.24
2017-02-18T13:31:15.442Z,80.72
2017-02-18T13:32:15.822Z,78.16
2017-02-18T13:33:15.976Z,76.08
2017-02-18T13:34:15.734Z,74.75
2017-02-18T13:35:15.789Z,75.13
2017-02-18T13:36:15.356Z,75.7
2017-02-18T13:37:15.746Z,76.74
2017-02-18T13:38:15.335Z,76.84
2017-02-18T13:39:15.727Z,77.12
2017-02-18T13:40:15.716Z,77.16
2017-02-18T13:41:15.696Z,78.45
2017-02-18T13:42:15.683Z,81.81
2017-02-18T13:43:15.672Z,83.8
2017-02-18T13:44:15.649Z,82.09
2017-02-18T13:45:15.646Z,84.55